« Back
NWS Peachtree City, Ga » Text Product » MCN Terminal Aerodrome Forecast


Printer-friendly Version
Current Version              Previous Versions:   1  2  3  4  5  6  7  8  9  

Terminal Aerodrome Forecast

117
FTUS42 KFFC 202300
TAFMCN
TAF
KMCN 202327Z 2100/2124 04005KT P6SM FEW250
     FM210900 VRB03KT P6SM SCT250=



USA.gov is the U.S. government's official web portal to all federal, state and local government web resources and services.